Time;durP1;ratioP1;P1;durP2;ratioP2;P2;SDS_P1;SDS_P2;PMS_P1;PMS_P2;Temp;Humidity;BMP_temperature;BMP_pressure;BME280_temperature;BME280_humidity;BME280_pressure;Samples;Min_cycle;Max_cycle;Signal;HPM_P1;HPM_P2
2021/11/15 00:00:57;;;;;;;50.70;28.52;;;;;;;6.29;76.14;102980.92;1696788;83;21046;-74
2021/11/15 00:03:25;;;;;;;44.20;27.52;;;;;;;6.30;76.23;102979.75;1696330;84;21594;-74
2021/11/15 00:05:52;;;;;;;48.45;28.52;;;;;;;6.30;76.22;102976.23;1696644;84;21124;-74
2021/11/15 00:08:19;;;;;;;46.23;26.62;;;;;;;6.31;76.26;102981.58;1696516;84;22519;-74
2021/11/15 00:10:46;;;;;;;48.63;28.32;;;;;;;6.29;76.28;102975.33;1696733;83;21622;-74
2021/11/15 00:13:12;;;;;;;47.03;28.38;;;;;;;6.30;76.27;102975.83;1696836;83;21084;-75
2021/11/15 00:15:39;;;;;;;47.78;27.80;;;;;;;6.32;76.36;102971.62;1694750;84;21150;-75
2021/11/15 00:18:07;;;;;;;45.38;26.45;;;;;;;6.34;76.37;102976.57;1688280;83;21089;-74
2021/11/15 00:20:36;;;;;;;46.18;27.73;;;;;;;6.36;76.37;102978.00;1688521;83;21845;-75
2021/11/15 00:23:06;;;;;;;43.28;26.07;;;;;;;6.36;76.33;102978.94;1687979;83;21069;-75
2021/11/15 00:25:33;;;;;;;50.10;26.95;;;;;;;6.36;76.38;102979.31;1688492;84;21066;-75
2021/11/15 00:28:00;;;;;;;45.20;28.62;;;;;;;6.36;76.48;102974.08;1688485;83;21551;-75
2021/11/15 00:30:26;;;;;;;49.35;27.22;;;;;;;6.36;76.50;102976.33;1688437;83;21066;-75
2021/11/15 00:32:53;;;;;;;45.78;27.05;;;;;;;6.33;76.36;102975.17;1688477;83;22552;-74
2021/11/15 00:35:19;;;;;;;51.48;30.32;;;;;;;6.32;76.52;102974.64;1688234;83;21219;-74
2021/11/15 00:37:46;;;;;;;50.08;28.12;;;;;;;6.33;76.38;102976.08;1688597;84;21108;-74
2021/11/15 00:40:15;;;;;;;54.30;30.68;;;;;;;6.30;76.20;102974.52;1688581;84;21148;-74
2021/11/15 00:42:42;;;;;;;50.67;30.08;;;;;;;6.30;76.13;102978.44;1688795;83;21082;-74
2021/11/15 00:45:10;;;;;;;54.33;31.27;;;;;;;6.31;76.01;102980.68;1688614;84;21762;-74
2021/11/15 00:47:36;;;;;;;51.37;29.90;;;;;;;6.31;76.00;102981.58;1688676;84;21079;-74
2021/11/15 00:50:05;;;;;;;50.23;28.23;;;;;;;6.33;76.03;102983.02;1688787;84;21349;-74
2021/11/15 00:52:32;;;;;;;49.98;28.35;;;;;;;6.28;75.98;102981.33;1688658;84;21177;-74
2021/11/15 00:55:00;;;;;;;52.03;29.30;;;;;;;6.26;76.10;102985.94;1688368;83;21118;-74
2021/11/15 00:57:29;;;;;;;54.00;27.13;;;;;;;6.21;76.24;102976.41;1688621;84;21837;-74
2021/11/15 00:59:56;;;;;;;52.78;30.65;;;;;;;6.17;76.26;102979.58;1688613;83;21054;-74
2021/11/15 01:02:22;;;;;;;52.38;29.35;;;;;;;6.13;76.29;102981.04;1688819;84;21115;-74
2021/11/15 01:04:49;;;;;;;51.18;28.47;;;;;;;6.12;76.27;102980.91;1688627;84;21074;-74
2021/11/15 01:07:16;;;;;;;51.42;28.47;;;;;;;6.11;76.31;102978.70;1688543;84;21121;-74
2021/11/15 01:09:43;;;;;;;51.18;29.70;;;;;;;6.13;76.31;102982.34;1688437;83;21764;-74
2021/11/15 01:12:09;;;;;;;50.40;28.95;;;;;;;6.15;76.26;102979.86;1688461;83;21352;-74
2021/11/15 01:14:36;;;;;;;45.40;27.80;;;;;;;6.14;76.25;102981.98;1688470;84;21082;-74
2021/11/15 01:17:03;;;;;;;48.20;28.50;;;;;;;6.16;76.22;102979.98;1680054;84;21078;-74
2021/11/15 01:19:30;;;;;;;54.48;30.80;;;;;;;6.19;76.21;102980.61;1649649;85;21031;-74
2021/11/15 01:21:57;;;;;;;53.00;29.07;;;;;;;6.19;76.13;102982.86;1676163;85;21836;-74
2021/11/15 01:24:24;;;;;;;54.65;30.37;;;;;;;6.18;76.11;102981.02;1676044;84;21090;-74
2021/11/15 01:26:50;;;;;;;52.50;29.63;;;;;;;6.20;76.18;102982.45;1676138;84;21121;-74
2021/11/15 01:29:17;;;;;;;52.53;29.15;;;;;;;6.21;76.18;102985.19;1676085;85;21143;-74
2021/11/15 01:31:44;;;;;;;47.75;27.67;;;;;;;6.22;76.20;102986.09;1676163;84;21090;-74
2021/11/15 01:34:11;;;;;;;50.10;28.98;;;;;;;6.24;76.24;102984.51;1676082;85;21772;-74
2021/11/15 01:36:37;;;;;;;49.98;28.98;;;;;;;6.23;76.10;102986.59;1697009;84;21126;-74
2021/11/15 01:39:04;;;;;;;50.88;29.35;;;;;;;6.22;76.17;102988.70;1676366;84;21058;-75
2021/11/15 01:41:31;;;;;;;50.35;30.27;;;;;;;6.22;76.17;102986.99;1676141;84;21078;-74
2021/11/15 01:43:58;;;;;;;48.75;27.40;;;;;;;6.22;76.18;102992.63;1676167;85;21138;-75
2021/11/15 01:46:24;;;;;;;49.50;28.60;;;;;;;6.21;76.23;102987.80;1676086;84;23061;-75
2021/11/15 01:48:51;;;;;;;47.38;27.62;;;;;;;6.25;76.28;102989.33;1676202;84;21520;-74
2021/11/15 01:51:18;;;;;;;50.65;28.32;;;;;;;6.26;76.13;102987.25;1676281;85;21150;-74
2021/11/15 01:53:45;;;;;;;48.65;29.50;;;;;;;6.27;76.13;102989.05;1676330;84;21315;-75
2021/11/15 01:56:11;;;;;;;52.45;28.92;;;;;;;6.28;76.14;102983.05;1676103;85;21078;-74
2021/11/15 01:58:38;;;;;;;50.28;28.98;;;;;;;6.29;76.04;102983.55;1676121;85;21696;-74
2021/11/15 02:01:05;;;;;;;50.05;28.45;;;;;;;6.26;75.98;102982.92;1676001;84;21071;-74
2021/11/15 02:03:32;;;;;;;49.27;28.12;;;;;;;6.26;75.95;102984.63;1675926;85;21109;-74
2021/11/15 02:06:04;;;;;;;46.25;26.93;;;;;;;6.27;76.02;102985.13;1675991;85;21105;-74
2021/11/15 02:08:29;;;;;;;44.73;25.92;;;;;;;6.24;75.88;102980.58;1675818;84;21363;-74
2021/11/15 02:10:56;;;;;;;46.88;26.33;;;;;;;6.24;75.98;102977.97;1675893;85;22274;-74
2021/11/15 02:13:24;;;;;;;48.33;28.92;;;;;;;6.20;76.01;102981.14;1675856;85;21592;-75
2021/11/15 02:15:54;;;;;;;43.83;26.30;;;;;;;6.17;76.14;102987.02;1676307;84;21125;-74
2021/11/15 02:18:22;;;;;;;44.70;25.77;;;;;;;6.15;75.98;102982.06;1688067;83;21078;-74
2021/11/15 02:20:59;;;;;;;47.10;27.90;;;;;;;6.15;76.13;102975.94;1688591;84;22439;-75
2021/11/15 02:23:33;;;;;;;45.28;27.15;;;;;;;6.16;76.27;102982.59;1687176;83;22748;-75
2021/11/15 02:26:00;;;;;;;45.67;27.17;;;;;;;6.17;76.38;102973.95;1688025;83;21126;-74
2021/11/15 02:28:32;;;;;;;41.37;23.40;;;;;;;6.15;76.52;102978.55;1688022;83;21081;-73
2021/11/15 02:31:02;;;;;;;47.70;26.80;;;;;;;6.14;76.57;102978.05;1688270;83;21145;-74
2021/11/15 02:33:30;;;;;;;45.12;26.12;;;;;;;6.12;76.70;102979.23;1688111;83;21051;-74
2021/11/15 02:36:01;;;;;;;47.60;26.30;;;;;;;6.14;76.83;102976.75;1687832;83;22131;-74
2021/11/15 02:38:28;;;;;;;40.65;24.95;;;;;;;6.14;76.92;102972.42;1688347;83;21070;-74
2021/11/15 02:40:55;;;;;;;46.30;26.37;;;;;;;6.14;77.07;102980.67;1688483;83;21094;-74
2021/11/15 02:43:21;;;;;;;47.05;25.68;;;;;;;6.11;77.06;102976.09;1688465;83;21165;-74
2021/11/15 02:45:48;;;;;;;43.80;25.95;;;;;;;6.10;77.15;102975.59;1688685;84;21094;-74
2021/11/15 02:48:20;;;;;;;47.88;27.98;;;;;;;6.08;77.27;102983.71;1688563;83;21887;-74
2021/11/15 02:50:47;;;;;;;42.20;26.10;;;;;;;6.06;77.40;102983.95;1659242;84;21078;-75
2021/11/15 02:53:14;;;;;;;40.45;24.25;;;;;;;6.05;77.42;102982.55;1688677;84;21235;-74
2021/11/15 02:55:43;;;;;;;39.90;24.55;;;;;;;6.06;77.52;102985.27;1688297;83;21090;-74
2021/11/15 02:58:11;;;;;;;42.40;24.72;;;;;;;6.08;77.52;102988.94;1658371;84;21571;-74
2021/11/15 03:00:55;;;;;;;46.00;25.97;;;;;;;6.06;77.52;102987.88;1688336;83;21703;-74
2021/11/15 03:03:20;;;;;;;44.33;25.05;;;;;;;6.05;77.54;102988.69;1687895;83;21536;-74
2021/11/15 03:05:52;;;;;;;41.92;25.30;;;;;;;6.06;77.56;102989.19;1688535;83;21093;-74
2021/11/15 03:08:19;;;;;;;39.13;24.55;;;;;;;6.08;77.62;102993.23;1688433;83;21133;-73
2021/11/15 03:10:50;;;;;;;43.70;25.20;;;;;;;6.08;77.64;102990.62;1705011;83;21255;-73
2021/11/15 03:13:18;;;;;;;45.78;25.95;;;;;;;6.07;77.66;102995.34;1688452;84;21765;-73
2021/11/15 03:15:48;;;;;;;41.88;25.60;;;;;;;6.04;77.63;102989.46;1688362;84;21584;-74
2021/11/15 03:18:19;;;;;;;39.95;25.43;;;;;;;6.03;77.65;102994.19;1688217;84;21069;-74
2021/11/15 03:21:00;;;;;;;42.40;24.97;;;;;;;6.02;77.75;102990.67;1705243;83;21630;-73
2021/11/15 03:23:29;;;;;;;39.15;24.52;;;;;;;6.02;77.81;102993.28;1688466;83;21356;-73
2021/11/15 03:25:56;;;;;;;40.67;24.50;;;;;;;6.04;77.86;103001.23;1688540;83;22593;-73
2021/11/15 03:28:29;;;;;;;44.10;25.85;;;;;;;6.02;77.87;103006.73;1658117;84;21123;-73
2021/11/15 03:30:59;;;;;;;37.93;23.70;;;;;;;6.01;77.98;103003.62;1688822;83;21093;-73
2021/11/15 03:33:27;;;;;;;36.73;23.57;;;;;;;6.00;78.02;103007.01;1688743;84;21207;-73
2021/11/15 03:35:54;;;;;;;37.95;23.87;;;;;;;6.00;78.05;103005.30;1688410;83;21086;-73
2021/11/15 03:38:21;;;;;;;39.00;23.75;;;;;;;6.00;78.04;103005.30;1688382;83;21894;-73
2021/11/15 03:40:48;;;;;;;42.25;25.05;;;;;;;5.97;78.07;103015.53;1688377;84;21098;-73
2021/11/15 03:43:15;;;;;;;37.40;23.57;;;;;;;5.95;78.01;103009.60;1688404;84;21595;-73
2021/11/15 03:45:43;;;;;;;38.45;24.02;;;;;;;5.91;78.09;103016.69;1687816;83;21642;-73
2021/11/15 03:48:11;;;;;;;39.03;23.65;;;;;;;5.87;78.06;103009.40;1688472;84;21093;-74
2021/11/15 03:50:37;;;;;;;36.98;23.50;;;;;;;5.85;78.18;103003.64;1688552;84;21772;-73
2021/11/15 03:53:08;;;;;;;37.48;23.57;;;;;;;5.84;78.26;103004.44;1688119;83;21144;-73
2021/11/15 03:55:38;;;;;;;42.38;25.50;;;;;;;5.85;78.26;103006.66;1688500;84;21078;-74
2021/11/15 03:58:04;;;;;;;37.80;24.27;;;;;;;5.83;78.25;103003.01;1688598;83;21058;-74
2021/11/15 04:00:34;;;;;;;39.18;25.08;;;;;;;5.83;78.32;103004.31;1688582;83;21134;-74
2021/11/15 04:03:04;;;;;;;40.70;24.82;;;;;;;5.81;78.39;102998.05;1688588;84;21785;-74
2021/11/15 04:05:35;;;;;;;38.38;25.00;;;;;;;5.83;78.50;103004.31;1688285;83;21078;-74
2021/11/15 04:08:02;;;;;;;38.38;24.45;;;;;;;5.87;78.58;103005.47;1688602;83;21584;-73
2021/11/15 04:10:34;;;;;;;34.55;22.80;;;;;;;5.87;78.49;103006.37;1688156;83;21082;-74
2021/11/15 04:13:07;;;;;;;43.75;24.12;;;;;;;5.89;78.50;103007.81;1703734;82;21062;-74
2021/11/15 04:15:34;;;;;;;38.10;23.77;;;;;;;5.87;78.48;103005.47;1688507;83;21791;-74
2021/11/15 04:18:03;;;;;;;42.88;25.62;;;;;;;5.87;78.55;103001.55;1691703;83;21132;-74
2021/11/15 04:20:31;;;;;;;37.42;21.95;;;;;;;5.85;78.47;103004.94;1693741;83;21156;-74
2021/11/15 04:22:58;;;;;;;37.75;25.32;;;;;;;5.83;78.46;103001.30;1693485;84;21690;-74
2021/11/15 04:25:26;;;;;;;40.60;26.02;;;;;;;5.81;78.48;103003.28;1693662;83;21077;-74
2021/11/15 04:27:52;;;;;;;36.77;22.77;;;;;;;5.78;78.52;103003.02;1693605;84;21962;-74
2021/11/15 04:30:19;;;;;;;39.25;24.92;;;;;;;5.73;78.46;103004.38;1693667;83;21065;-74
2021/11/15 04:32:48;;;;;;;40.23;24.92;;;;;;;5.71;78.63;103012.48;1693683;84;21090;-74
2021/11/15 04:35:18;;;;;;;38.75;24.45;;;;;;;5.67;78.61;103011.33;1693887;83;21594;-74
2021/11/15 04:37:45;;;;;;;41.65;24.47;;;;;;;5.66;78.79;103008.18;1694157;83;21082;-74
2021/11/15 04:40:12;;;;;;;36.33;22.20;;;;;;;5.69;78.89;103014.03;1693596;83;22639;-74
2021/11/15 04:42:39;;;;;;;34.05;23.00;;;;;;;5.68;78.82;103008.31;1693852;84;21074;-74
2021/11/15 04:45:06;;;;;;;37.23;23.15;;;;;;;5.66;78.87;103005.56;1693876;84;21022;-74
2021/11/15 04:47:33;;;;;;;38.70;24.50;;;;;;;5.66;78.89;103009.48;1700584;84;21599;-74
2021/11/15 04:49:59;;;;;;;33.08;23.05;;;;;;;5.66;78.91;103008.18;1699084;84;21104;-74
2021/11/15 04:52:40;;;;;;;34.27;23.25;;;;;;;5.64;78.92;103004.12;1703840;82;21769;-74
2021/11/15 04:55:09;;;;;;;35.03;22.98;;;;;;;5.64;78.87;103011.06;1729811;82;21061;-74
2021/11/15 04:57:45;;;;;;;32.83;22.70;;;;;;;5.61;78.92;103013.05;1730790;82;21200;-74
2021/11/15 05:00:18;;;;;;;37.63;23.60;;;;;;;5.62;78.99;103011.34;1730433;82;21241;-73
2021/11/15 05:02:47;;;;;;;39.33;23.65;;;;;;;5.60;78.89;103020.35;1730842;82;28704;-74
2021/11/15 05:05:17;;;;;;;33.18;22.42;;;;;;;5.58;78.94;103021.03;1730229;81;21908;-73
2021/11/15 05:07:53;;;;;;;36.13;21.85;;;;;;;5.58;78.97;103015.80;1730355;81;21446;-73
2021/11/15 05:10:17;;;;;;;34.20;23.67;;;;;;;5.57;78.99;103020.09;1728036;82;21138;-74
2021/11/15 05:12:47;;;;;;;39.18;24.20;;;;;;;5.57;78.88;103023.11;1730413;82;21085;-74
2021/11/15 05:17:36;;;;;;;36.53;23.75;;;;;;;5.55;78.93;103017.75;1770859;80;22660;-76
2021/11/15 05:20:06;;;;;;;37.98;23.18;;;;;;;5.53;79.04;103026.26;1735802;81;21560;-76
2021/11/15 05:22:36;;;;;;;36.28;22.77;;;;;;;5.51;79.01;103015.67;1703570;81;22596;-80
2021/11/15 05:25:08;;;;;;;37.40;23.35;;;;;;;5.51;79.04;103018.29;1715909;83;21231;-79
2021/11/15 05:27:31;;;;;;;33.50;21.57;;;;;;;5.52;79.03;103017.52;1709862;83;21102;-75
2021/11/15 05:29:59;;;;;;;34.98;23.25;;;;;;;5.54;79.06;103024.18;1716426;83;21146;-74
2021/11/15 05:32:26;;;;;;;38.67;24.50;;;;;;;5.58;79.13;103025.84;1716985;82;21130;-76
2021/11/15 05:34:59;;;;;;;35.23;23.83;;;;;;;5.59;79.02;103019.85;1716643;83;21758;-73
2021/11/15 05:37:26;;;;;;;33.60;22.50;;;;;;;5.59;79.00;103021.16;1716060;83;22362;-77
2021/11/15 05:39:53;;;;;;;36.83;23.87;;;;;;;5.61;78.99;103027.78;1717113;83;21146;-79
2021/11/15 05:42:20;;;;;;;35.70;23.47;;;;;;;5.60;78.92;103029.90;1717130;83;21067;-74
2021/11/15 05:44:50;;;;;;;38.13;24.57;;;;;;;5.59;78.94;103032.91;1717253;83;21146;-75
2021/11/15 05:47:15;;;;;;;39.23;25.85;;;;;;;5.58;79.01;103030.17;1716609;83;21853;-74
2021/11/15 05:49:42;;;;;;;37.23;22.98;;;;;;;5.61;79.09;103028.72;1717225;83;21121;-74
2021/11/15 05:52:13;;;;;;;37.75;23.00;;;;;;;5.63;78.98;103027.14;1719441;82;21641;-76
2021/11/15 05:54:42;;;;;;;41.25;24.20;;;;;;;5.62;78.96;103027.92;1722098;82;21088;-76
2021/11/15 05:57:07;;;;;;;37.73;23.70;;;;;;;5.65;79.04;103032.09;1726351;81;21130;-76
2021/11/15 05:59:34;;;;;;;44.08;25.27;;;;;;;5.71;78.99;103034.70;1727317;81;21776;-76
2021/11/15 06:02:01;;;;;;;41.37;24.20;;;;;;;5.71;78.94;103034.30;1723374;82;21074;-75
2021/11/15 06:04:28;;;;;;;40.20;25.27;;;;;;;5.71;78.85;103032.09;1723335;82;21094;-74
2021/11/15 06:06:56;;;;;;;38.35;23.77;;;;;;;5.72;78.91;103026.95;1704290;83;21087;-74
2021/11/15 06:09:23;;;;;;;39.42;25.17;;;;;;;5.75;78.80;103029.83;1723449;82;21635;-74
2021/11/15 06:11:49;;;;;;;42.03;23.67;;;;;;;5.72;78.75;103029.57;1723368;82;21758;-74
2021/11/15 06:14:16;;;;;;;38.53;25.12;;;;;;;5.73;78.79;103036.64;1723394;82;21070;-74
2021/11/15 06:16:42;;;;;;;46.15;26.85;;;;;;;5.74;78.71;103028.40;1726078;81;21087;-74
2021/11/15 06:19:09;;;;;;;39.53;24.57;;;;;;;5.74;78.78;103034.52;1729044;81;21047;-74
2021/11/15 06:21:36;;;;;;;42.62;24.47;;;;;;;5.76;78.75;103039.88;1729028;82;21595;-74
2021/11/15 06:24:06;;;;;;;40.38;25.35;;;;;;;5.76;78.77;103042.12;1729084;81;22502;-74
2021/11/15 06:26:33;;;;;;;42.60;24.70;;;;;;;5.79;78.77;103044.06;1728626;82;21062;-74
2021/11/15 06:29:00;;;;;;;37.98;24.82;;;;;;;5.81;78.73;103047.71;1728449;82;21047;-74
2021/11/15 06:31:34;;;;;;;40.43;24.52;;;;;;;5.79;78.66;103053.21;1728386;82;21615;-74
2021/11/15 06:33:55;;;;;;;37.05;24.30;;;;;;;5.79;78.66;103054.11;1726939;82;21066;-74
2021/11/15 06:36:23;;;;;;;43.25;26.42;;;;;;;5.80;78.67;103061.55;1728442;83;22537;-74
2021/11/15 06:38:51;;;;;;;43.35;25.95;;;;;;;5.79;78.65;103061.95;1728423;83;21051;-75
2021/11/15 06:41:20;;;;;;;42.05;26.07;;;;;;;5.79;78.58;103062.36;1728335;82;21576;-74
2021/11/15 06:43:46;;;;;;;42.48;26.00;;;;;;;5.80;78.71;103062.86;1728237;82;21114;-74
2021/11/15 06:46:14;;;;;;;42.90;25.97;;;;;;;5.80;78.58;103066.78;1728604;82;21094;-74
2021/11/15 06:48:41;;;;;;;43.17;26.07;;;;;;;5.74;78.45;103067.59;1728325;82;22603;-74
2021/11/15 06:51:12;;;;;;;40.33;25.90;;;;;;;5.71;78.54;103073.90;1728258;83;21051;-74
2021/11/15 06:53:39;;;;;;;45.85;27.73;;;;;;;5.68;78.51;103066.70;1728421;81;21125;-74
2021/11/15 06:56:06;;;;;;;45.58;27.48;;;;;;;5.65;78.51;103072.59;1728310;83;21063;-74
2021/11/15 06:58:33;;;;;;;44.15;26.50;;;;;;;5.65;78.62;103076.52;1728341;82;21097;-74
2021/11/15 07:01:00;;;;;;;48.83;28.05;;;;;;;5.63;78.57;103073.23;1728566;83;21929;-74
2021/11/15 07:03:45;;;;;;;47.45;27.60;;;;;;;5.63;78.64;103070.63;1727932;83;21114;-74
2021/11/15 07:06:11;;;;;;;46.60;26.97;;;;;;;5.60;78.65;103075.62;1728330;82;21097;-74
2021/11/15 07:08:38;;;;;;;41.92;24.82;;;;;;;5.60;78.74;103075.62;1728357;82;21129;-73
2021/11/15 07:11:05;;;;;;;47.93;27.85;;;;;;;5.61;78.76;103075.75;1728575;82;21096;-73
2021/11/15 07:13:31;;;;;;;42.58;26.52;;;;;;;5.63;78.80;103072.87;1728518;82;21752;-74
2021/11/15 07:15:58;;;;;;;39.95;25.75;;;;;;;5.68;78.92;103074.53;1727485;83;21375;-74
2021/11/15 07:18:27;;;;;;;44.73;26.52;;;;;;;5.73;78.93;103073.63;1715558;83;21066;-74
2021/11/15 07:20:54;;;;;;;47.43;27.55;;;;;;;5.76;78.89;103072.55;1715429;82;21139;-73
2021/11/15 07:23:22;;;;;;;44.73;26.90;;;;;;;5.78;78.76;103070.60;1715427;83;21130;-74
2021/11/15 07:25:49;;;;;;;46.00;28.67;;;;;;;5.80;78.78;103070.33;1715419;82;21698;-74
2021/11/15 07:28:17;;;;;;;49.13;28.73;;;;;;;5.84;78.83;103072.80;1715319;82;21137;-73
2021/11/15 07:30:45;;;;;;;43.95;27.40;;;;;;;5.87;78.77;103074.74;1715241;82;21066;-74
2021/11/15 07:33:12;;;;;;;43.35;26.30;;;;;;;5.86;78.66;103073.84;1715285;82;21086;-74
2021/11/15 07:35:39;;;;;;;42.58;27.05;;;;;;;5.85;78.50;103078.13;1715287;82;21541;-74
2021/11/15 07:38:06;;;;;;;46.53;27.70;;;;;;;5.85;78.58;103077.22;1715067;82;21804;-74
2021/11/15 07:40:33;;;;;;;41.18;25.40;;;;;;;5.88;78.58;103081.81;1715321;82;21549;-74
2021/11/15 07:42:59;;;;;;;49.90;29.70;;;;;;;5.90;78.63;103079.83;1715348;82;21051;-74
2021/11/15 07:45:26;;;;;;;49.33;29.52;;;;;;;5.90;78.50;103077.22;1715442;83;21062;-74
2021/11/15 07:47:52;;;;;;;47.67;27.42;;;;;;;5.84;78.40;103084.16;1715519;82;21106;-73
2021/11/15 07:50:19;;;;;;;48.87;27.10;;;;;;;5.81;78.43;103079.08;1715467;82;21688;-74
2021/11/15 07:52:46;;;;;;;44.23;26.60;;;;;;;5.75;78.48;103079.89;1715367;82;21063;-73
2021/11/15 07:55:13;;;;;;;49.98;28.92;;;;;;;5.74;78.60;103078.95;1715534;82;21062;-74
2021/11/15 07:57:41;;;;;;;48.38;26.75;;;;;;;5.77;78.76;103076.60;1715356;82;21071;-74
2021/11/15 08:00:10;;;;;;;42.43;25.95;;;;;;;5.82;78.81;103079.20;1715360;82;21082;-74
2021/11/15 08:02:37;;;;;;;45.45;25.77;;;;;;;5.82;78.66;103075.28;1715701;83;21851;-73
2021/11/15 08:05:05;;;;;;;47.30;28.27;;;;;;;5.85;78.76;103080.74;1715352;83;21079;-73
2021/11/15 08:07:32;;;;;;;42.33;26.82;;;;;;;5.88;78.78;103079.20;1715395;82;21064;-74
2021/11/15 08:10:19;;;;;;;51.77;27.85;;;;;;;5.91;78.73;103080.36;1715028;83;21601;-74
2021/11/15 08:12:48;;;;;;;41.58;26.15;;;;;;;5.94;78.75;103077.98;1715396;83;21122;-74
2021/11/15 08:15:17;;;;;;;40.80;25.60;;;;;;;5.98;78.69;103073.95;1715149;83;21079;-74
2021/11/15 08:17:46;;;;;;;42.45;26.07;;;;;;;5.98;78.63;103081.79;1723461;82;21172;-74
2021/11/15 08:20:18;;;;;;;41.28;26.60;;;;;;;5.97;78.44;103080.88;1728040;82;21031;-74
2021/11/15 08:22:47;;;;;;;42.95;26.17;;;;;;;5.94;78.48;103077.07;1727757;82;21062;-74
2021/11/15 08:25:54;;;;;;;43.65;25.90;;;;;;;5.96;78.59;103072.51;1728274;82;21102;-74
2021/11/15 08:28:21;;;;;;;43.55;26.05;;;;;;;6.00;78.60;103078.50;1728217;82;21306;-72
2021/11/15 08:30:47;;;;;;;42.43;25.00;;;;;;;6.04;78.66;103074.43;1728230;83;21051;-72
2021/11/15 08:33:14;;;;;;;35.35;23.90;;;;;;;6.06;78.51;103072.84;1728470;83;21114;-72
2021/11/15 08:35:41;;;;;;;37.50;26.00;;;;;;;6.07;78.52;103068.56;1728249;83;21070;-72
2021/11/15 08:38:40;;;;;;;38.35;25.08;;;;;;;6.08;78.44;103071.30;1728080;81;22171;-72
2021/11/15 08:41:07;;;;;;;41.20;25.60;;;;;;;6.08;78.41;103071.30;1728156;83;21769;-72
2021/11/15 08:43:34;;;;;;;40.10;24.67;;;;;;;6.10;78.52;103067.47;1728190;82;21518;-72
2021/11/15 08:46:01;;;;;;;36.93;23.75;;;;;;;6.14;78.60;103067.86;1728114;82;21008;-72
2021/11/15 08:48:27;;;;;;;37.50;25.05;;;;;;;6.19;78.50;103067.84;1728106;83;21046;-72
2021/11/15 08:50:54;;;;;;;39.08;24.10;;;;;;;6.20;78.43;103071.36;1728052;82;21070;-72
2021/11/15 08:53:21;;;;;;;42.98;26.95;;;;;;;6.21;78.36;103066.63;1728088;82;21668;-72
2021/11/15 08:55:47;;;;;;;44.13;25.72;;;;;;;6.20;78.31;103068.75;1728261;82;21113;-72
2021/11/15 08:58:14;;;;;;;48.70;26.12;;;;;;;6.22;78.39;103073.30;1728396;82;21070;-72
2021/11/15 09:00:44;;;;;;;43.30;26.15;;;;;;;6.26;78.42;103070.53;1728099;82;21012;-72
2021/11/15 09:03:10;;;;;;;45.75;26.95;;;;;;;6.31;78.43;103071.83;1728275;82;21540;-72
2021/11/15 09:05:37;;;;;;;41.05;24.75;;;;;;;6.33;78.33;103071.55;1728258;83;21771;-73
2021/11/15 09:08:05;;;;;;;43.73;26.00;;;;;;;6.32;78.18;103071.02;1728285;82;21393;-72
2021/11/15 09:10:31;;;;;;;43.55;24.65;;;;;;;6.31;78.15;103070.92;1728190;83;21577;-72
2021/11/15 09:12:58;;;;;;;43.50;26.90;;;;;;;6.27;78.13;103070.13;1728179;81;21073;-72
2021/11/15 09:15:25;;;;;;;39.00;24.43;;;;;;;6.28;78.13;103068.05;1728224;82;21070;-72
2021/11/15 09:17:51;;;;;;;48.05;27.67;;;;;;;6.29;78.20;103068.55;1727797;82;21761;-73
2021/11/15 09:20:18;;;;;;;45.63;26.68;;;;;;;6.31;78.21;103069.61;1727869;82;21679;-72
2021/11/15 09:22:45;;;;;;;40.63;25.30;;;;;;;6.32;78.20;103067.49;1728268;82;21101;-72
2021/11/15 09:25:12;;;;;;;45.10;26.40;;;;;;;6.34;78.33;103061.58;1728254;81;21089;-72
2021/11/15 09:27:39;;;;;;;46.83;27.52;;;;;;;6.42;78.18;103072.28;1728027;83;21152;-72
2021/11/15 09:30:08;;;;;;;45.15;27.40;;;;;;;6.45;78.19;103064.16;1728257;82;21865;-72
2021/11/15 09:32:34;;;;;;;42.08;25.95;;;;;;;6.48;78.18;103064.41;1728207;83;21532;-72
2021/11/15 09:35:01;;;;;;;42.88;26.50;;;;;;;6.52;78.16;103059.92;1728403;82;21011;-72
2021/11/15 09:37:28;;;;;;;43.73;27.02;;;;;;;6.56;78.08;103059.37;1728299;82;21127;-72
2021/11/15 09:39:57;;;;;;;44.18;26.15;;;;;;;6.59;78.08;103051.36;1728443;82;21114;-72
2021/11/15 09:42:24;;;;;;;42.45;27.15;;;;;;;6.57;77.73;103048.13;1728421;82;22940;-72
2021/11/15 09:44:51;;;;;;;59.70;35.98;;;;;;;6.52;77.72;103047.74;1728277;82;21078;-73
2021/11/15 09:47:17;;;;;;;56.88;32.15;;;;;;;6.54;77.94;103054.01;1728309;82;21067;-72
2021/11/15 09:49:44;;;;;;;51.68;32.13;;;;;;;6.62;77.86;103050.68;1728447;82;21110;-72
2021/11/15 09:52:11;;;;;;;56.77;34.27;;;;;;;6.67;77.85;103050.65;1728445;82;21104;-72
2021/11/15 09:54:41;;;;;;;46.92;28.65;;;;;;;6.73;77.91;103050.21;1728167;83;22587;-72
2021/11/15 09:57:11;;;;;;;42.83;28.55;;;;;;;6.83;77.89;103046.19;1728391;82;21583;-72
2021/11/15 09:59:37;;;;;;;46.60;26.57;;;;;;;6.89;77.77;103050.98;1727957;82;21001;-73
2021/11/15 10:02:05;;;;;;;46.63;27.55;;;;;;;6.81;77.58;103026.84;1728160;82;21727;-72
2021/11/15 10:04:32;;;;;;;47.03;27.30;;;;;;;6.97;77.66;103042.03;1728421;82;21070;-72
2021/11/15 10:06:59;;;;;;;45.03;26.60;;;;;;;7.02;77.55;103045.92;1728262;82;22710;-72
2021/11/15 10:09:32;;;;;;;47.48;28.30;;;;;;;7.13;77.58;103049.33;1728285;83;21067;-73
2021/11/15 10:12:01;;;;;;;45.52;27.77;;;;;;;7.19;77.43;103044.58;1728276;83;21058;-72
2021/11/15 10:14:28;;;;;;;46.25;26.93;;;;;;;7.28;77.40;103044.34;1728998;82;21095;-72
2021/11/15 10:17:01;;;;;;;43.17;25.62;;;;;;;7.38;77.37;103040.32;1727892;83;21078;-72
2021/11/15 10:19:30;;;;;;;46.60;26.97;;;;;;;7.39;76.95;103035.20;1715409;82;22661;-72
2021/11/15 10:22:04;;;;;;;42.27;25.52;;;;;;;7.41;76.88;103039.22;1718935;82;21070;-72
2021/11/15 10:24:42;;;;;;;41.15;25.17;;;;;;;7.38;76.59;103033.77;1715376;82;21665;-72
2021/11/15 10:27:18;;;;;;;42.90;26.15;;;;;;;7.35;76.61;103033.53;1715547;82;21157;-72
2021/11/15 10:29:50;;;;;;;42.90;26.73;;;;;;;7.37;76.60;103033.24;1715905;82;21094;-72
2021/11/15 10:32:18;;;;;;;38.83;25.50;;;;;;;7.43;76.66;103032.79;1715392;82;21761;-72
2021/11/15 10:34:49;;;;;;;38.95;24.18;;;;;;;7.47;76.60;103032.21;1715251;83;21095;-72
2021/11/15 10:37:27;;;;;;;41.53;25.57;;;;;;;7.48;76.44;103029.71;1715343;83;21057;-72
2021/11/15 10:40:06;;;;;;;43.68;26.45;;;;;;;7.51;76.50;103025.12;1715249;83;21081;-72
2021/11/15 10:42:49;;;;;;;43.80;25.95;;;;;;;7.54;76.43;103026.22;1715082;83;21090;-72
2021/11/15 10:45:22;;;;;;;40.40;24.75;;;;;;;7.62;76.42;103020.64;1715244;83;22689;-72
2021/11/15 10:47:58;;;;;;;38.93;24.60;;;;;;;7.70;76.36;103019.52;1715683;82;21094;-73
2021/11/15 10:50:44;;;;;;;44.67;26.15;;;;;;;7.79;76.32;103018.88;1715269;82;21779;-73
2021/11/15 10:53:09;;;;;;;44.08;25.12;;;;;;;7.80;75.98;103021.99;1714243;82;21118;-73
2021/11/15 10:55:44;;;;;;;37.45;24.52;;;;;;;7.78;75.76;103018.35;1715456;82;21087;-73
2021/11/15 10:58:23;;;;;;;39.83;24.05;;;;;;;7.70;75.54;103019.52;1715327;82;21596;-73
2021/11/15 11:00:52;;;;;;;38.35;24.25;;;;;;;7.62;75.59;103026.82;1715461;83;21073;-73
2021/11/15 11:03:21;;;;;;;39.35;23.45;;;;;;;7.65;75.63;103028.33;1715180;83;21063;-73
2021/11/15 11:05:52;;;;;;;41.73;24.82;;;;;;;7.68;75.62;103027.27;1715586;82;21067;-72
2021/11/15 11:08:24;;;;;;;40.85;24.35;;;;;;;7.69;75.45;103026.84;1715411;83;21118;-72
2021/11/15 11:10:55;;;;;;;36.53;23.25;;;;;;;7.71;75.41;103029.19;1715279;82;21752;-72
2021/11/15 11:13:26;;;;;;;39.98;24.50;;;;;;;7.70;75.34;103028.28;1715225;82;21083;-72
2021/11/15 11:15:54;;;;;;;36.55;23.30;;;;;;;7.72;75.26;103031.92;1715532;82;21098;-72
2021/11/15 11:18:34;;;;;;;36.13;22.67;;;;;;;7.74;75.31;103030.73;1721640;83;21081;-73
2021/11/15 11:23:33;;;;;;;38.02;23.98;;;;;;;7.79;75.06;103030.67;1729011;82;21871;-73
2021/11/15 11:25:56;;;;;;;44.13;24.95;;;;;;;7.79;74.97;103022.81;1727364;82;21662;-72
2021/11/15 11:28:33;;;;;;;40.55;25.15;;;;;;;7.79;74.93;103019.78;1728368;83;21091;-73